Time;durP1;ratioP1;P1;durP2;ratioP2;P2;SDS_P1;SDS_P2;PMS_P1;PMS_P2;Temp;Humidity;BMP_temperature;BMP_pressure;BME280_temperature;BME280_humidity;BME280_pressure;Samples;Min_cycle;Max_cycle;Signal;HPM_P1;HPM_P2
2023/10/18 00:02:16;;;;;;;1.80;1.20;;;23.40;65.10;;;;;;5052970;28;20936;-91
2023/10/18 00:04:43;;;;;;;1.50;1.40;;;23.40;65.20;;;;;;5053045;28;20481;-83
2023/10/18 00:07:12;;;;;;;1.50;1.27;;;23.40;65.10;;;;;;5052900;28;20440;-91
2023/10/18 00:09:45;;;;;;;1.70;1.23;;;23.30;65.00;;;;;;5052779;28;20433;-90
2023/10/18 00:12:16;;;;;;;2.30;1.67;;;23.30;65.10;;;;;;5052959;28;20521;-91
2023/10/18 00:14:43;;;;;;;1.80;1.47;;;23.30;64.90;;;;;;5053112;28;20491;-91
2023/10/18 00:17:10;;;;;;;1.50;1.27;;;23.30;65.10;;;;;;5053364;28;20476;-91
2023/10/18 00:19:37;;;;;;;2.37;1.50;;;23.30;65.10;;;;;;5052916;28;21006;-89
2023/10/18 00:22:06;;;;;;;1.93;1.30;;;23.30;65.10;;;;;;5053137;28;20437;-83
2023/10/18 00:24:34;;;;;;;1.60;1.20;;;23.30;65.10;;;;;;5052800;28;20580;-90
2023/10/18 00:27:03;;;;;;;1.47;1.30;;;23.30;65.90;;;;;;5052615;28;20468;-91
2023/10/18 00:29:30;;;;;;;1.60;1.30;;;23.30;65.00;;;;;;5052685;28;20433;-84
2023/10/18 00:31:59;;;;;;;1.60;1.50;;;23.30;65.90;;;;;;5052644;28;20437;-83
2023/10/18 00:34:26;;;;;;;1.30;1.10;;;23.30;65.10;;;;;;5052625;28;20465;-83
2023/10/18 00:36:53;;;;;;;1.70;1.30;;;23.30;65.10;;;;;;5052889;28;20524;-83
2023/10/18 00:39:21;;;;;;;1.50;1.40;;;23.30;65.10;;;;;;5052642;28;20925;-87
2023/10/18 00:41:52;;;;;;;1.43;1.30;;;23.30;65.10;;;;;;5054486;28;20524;-83
2023/10/18 00:44:22;;;;;;;1.60;1.50;;;23.30;65.10;;;;;;5056101;28;20468;-84
2023/10/18 00:46:49;;;;;;;2.03;1.83;;;23.30;65.10;;;;;;5056203;28;20830;-83
2023/10/18 00:49:17;;;;;;;1.30;1.17;;;23.30;65.10;;;;;;5056141;28;20531;-85
2023/10/18 00:51:44;;;;;;;1.60;1.50;;;23.30;65.00;;;;;;5056102;28;20433;-91
2023/10/18 00:54:12;;;;;;;1.50;1.40;;;23.20;65.00;;;;;;5056012;28;20429;-83
2023/10/18 00:56:40;;;;;;;1.30;1.20;;;23.20;65.00;;;;;;5055370;28;20480;-83
2023/10/18 00:59:18;;;;;;;1.60;1.50;;;23.20;65.00;;;;;;5055956;28;20437;-83
2023/10/18 01:01:53;;;;;;;1.40;1.27;;;23.20;65.00;;;;;;5055983;28;20794;-83
2023/10/18 01:04:24;;;;;;;1.63;1.50;;;23.20;65.00;;;;;;5055947;28;20430;-91
2023/10/18 01:06:51;;;;;;;1.30;1.20;;;23.20;65.00;;;;;;5055929;28;20460;-83
2023/10/18 01:09:17;;;;;;;1.57;1.47;;;23.20;64.90;;;;;;5055702;28;20792;-83
2023/10/18 01:11:46;;;;;;;1.10;1.00;;;23.20;64.90;;;;;;5055852;28;20524;-83
2023/10/18 01:14:17;;;;;;;1.40;1.30;;;23.20;65.00;;;;;;5055659;28;20972;-83
2023/10/18 01:16:45;;;;;;;2.17;1.37;;;23.20;65.90;;;;;;5055633;28;20848;-83
2023/10/18 01:19:16;;;;;;;1.60;1.40;;;23.20;65.00;;;;;;5055510;28;20437;-83
2023/10/18 01:21:45;;;;;;;1.60;1.10;;;23.20;64.90;;;;;;5055563;28;20441;-92
2023/10/18 01:24:15;;;;;;;2.00;1.27;;;23.20;65.00;;;;;;5055518;28;20438;-91
2023/10/18 01:26:43;;;;;;;2.60;1.20;;;23.20;65.10;;;;;;5055498;28;20450;-84
2023/10/18 01:29:11;;;;;;;1.60;1.50;;;23.20;64.90;;;;;;5055434;28;21554;-91
2023/10/18 01:31:43;;;;;;;2.03;1.40;;;23.20;65.00;;;;;;5055358;28;20520;-83
2023/10/18 01:34:10;;;;;;;1.50;1.30;;;23.10;64.90;;;;;;5055526;28;20441;-83
2023/10/18 01:36:39;;;;;;;1.63;1.30;;;23.10;64.90;;;;;;5055358;28;20437;-83
2023/10/18 01:39:18;;;;;;;1.80;1.40;;;23.10;64.80;;;;;;5054947;28;20509;-83
2023/10/18 01:41:47;;;;;;;1.20;1.00;;;23.10;64.90;;;;;;5055247;28;20441;-90
2023/10/18 01:44:18;;;;;;;2.00;1.50;;;23.10;64.90;;;;;;5054766;28;20473;-83
2023/10/18 01:46:46;;;;;;;2.07;1.40;;;23.10;64.90;;;;;;5054941;28;20479;-91
2023/10/18 01:49:16;;;;;;;1.67;1.30;;;23.10;64.80;;;;;;5054960;28;20492;-83
2023/10/18 01:51:46;;;;;;;2.07;1.50;;;23.10;64.90;;;;;;5054449;28;20452;-83
2023/10/18 01:54:15;;;;;;;1.30;1.20;;;23.10;65.70;;;;;;5054693;28;20495;-83
2023/10/18 01:56:46;;;;;;;2.00;1.37;;;23.10;64.90;;;;;;5054803;28;20583;-83
2023/10/18 01:59:17;;;;;;;1.70;1.40;;;23.10;64.90;;;;;;5054824;28;20503;-83
2023/10/18 02:01:45;;;;;;;1.37;1.27;;;23.10;64.90;;;;;;5054783;28;20492;-90
2023/10/18 02:04:23;;;;;;;1.50;1.40;;;23.10;64.90;;;;;;5054510;28;20959;-83
2023/10/18 02:06:51;;;;;;;1.60;1.50;;;23.10;64.90;;;;;;5054746;28;20433;-83
2023/10/18 02:09:19;;;;;;;1.30;1.20;;;23.10;64.90;;;;;;5054818;28;20871;-83
2023/10/18 02:11:46;;;;;;;2.03;1.10;;;23.10;64.80;;;;;;5053983;28;20448;-90
2023/10/18 02:14:14;;;;;;;1.33;1.23;;;23.10;64.90;;;;;;5043919;28;20449;-91
2023/10/18 02:16:45;;;;;;;1.60;1.43;;;23.00;64.70;;;;;;5054399;28;20433;-90
2023/10/18 02:19:13;;;;;;;1.73;1.50;;;23.00;64.70;;;;;;5054461;28;20429;-83
2023/10/18 02:21:41;;;;;;;1.20;1.10;;;23.10;64.90;;;;;;5054452;28;20429;-88
2023/10/18 02:24:11;;;;;;;1.23;1.10;;;23.00;64.70;;;;;;5053691;28;20955;-83
2023/10/18 02:26:44;;;;;;;1.30;1.20;;;23.00;64.70;;;;;;5053502;28;20550;-83
2023/10/18 02:29:12;;;;;;;1.23;1.13;;;23.00;64.70;;;;;;5053775;28;20960;-83
2023/10/18 02:31:41;;;;;;;1.47;1.37;;;23.00;64.70;;;;;;5054307;28;20441;-83
2023/10/18 02:34:09;;;;;;;1.50;1.40;;;23.00;64.70;;;;;;5053809;28;20445;-83
2023/10/18 02:36:39;;;;;;;1.43;1.33;;;23.00;64.70;;;;;;5054254;28;20468;-91
2023/10/18 02:39:08;;;;;;;1.60;1.50;;;23.00;64.70;;;;;;5054802;28;20473;-83
2023/10/18 02:41:38;;;;;;;1.10;0.97;;;23.00;64.70;;;;;;5054659;28;20437;-91
2023/10/18 02:44:10;;;;;;;1.33;1.23;;;23.00;64.70;;;;;;5054103;28;20442;-90
2023/10/18 02:46:37;;;;;;;3.27;1.20;;;23.00;64.80;;;;;;5053701;28;20488;-85
2023/10/18 02:49:08;;;;;;;2.47;1.40;;;23.00;64.70;;;;;;5053970;28;20441;-83
2023/10/18 02:51:36;;;;;;;1.67;1.57;;;23.00;64.70;;;;;;5053753;28;20437;-91
2023/10/18 02:54:07;;;;;;;1.57;1.30;;;23.00;65.50;;;;;;5053478;28;20453;-91
2023/10/18 02:56:37;;;;;;;1.40;1.10;;;23.00;64.80;;;;;;5053272;28;20839;-83
2023/10/18 02:59:07;;;;;;;1.93;1.30;;;23.00;64.70;;;;;;5053666;28;20999;-83
2023/10/18 03:01:36;;;;;;;1.60;1.50;;;23.00;64.70;;;;;;5053839;28;20522;-83
2023/10/18 03:04:07;;;;;;;1.20;1.10;;;23.00;64.80;;;;;;5052730;28;20473;-92
2023/10/18 03:06:35;;;;;;;1.40;1.30;;;23.00;64.70;;;;;;5054184;28;20524;-90
2023/10/18 03:09:03;;;;;;;2.33;1.80;;;22.90;64.70;;;;;;5053434;28;20441;-83
2023/10/18 03:11:32;;;;;;;1.33;1.10;;;23.00;64.70;;;;;;5053662;28;20499;-83
2023/10/18 03:14:01;;;;;;;1.40;1.30;;;23.00;64.70;;;;;;5053354;28;20453;-90
2023/10/18 03:16:29;;;;;;;1.70;1.40;;;23.00;64.70;;;;;;5053404;28;20441;-89
2023/10/18 03:18:59;;;;;;;1.73;1.40;;;22.90;64.60;;;;;;5053732;28;20433;-83
2023/10/18 03:21:32;;;;;;;1.60;1.50;;;22.90;64.60;;;;;;5053343;28;20437;-91
2023/10/18 03:24:00;;;;;;;1.87;1.50;;;22.90;64.50;;;;;;5053061;28;20469;-83
2023/10/18 03:26:35;;;;;;;1.40;1.20;;;22.90;65.40;;;;;;5053013;28;20523;-83
2023/10/18 03:29:11;;;;;;;1.43;1.30;;;22.90;65.50;;;;;;5053424;28;20857;-83
2023/10/18 03:31:40;;;;;;;1.40;1.30;;;22.90;64.60;;;;;;5053098;28;20429;-87
2023/10/18 03:34:15;;;;;;;2.00;1.23;;;22.90;64.60;;;;;;5053282;28;20437;-83
2023/10/18 03:36:51;;;;;;;1.97;1.40;;;22.90;64.60;;;;;;5053492;28;20436;-83
2023/10/18 03:39:19;;;;;;;1.47;1.30;;;22.90;64.60;;;;;;5053147;28;20433;-83
2023/10/18 03:41:50;;;;;;;1.40;1.10;;;22.90;64.60;;;;;;5053140;28;20469;-88
2023/10/18 03:44:21;;;;;;;1.40;1.30;;;22.90;64.60;;;;;;5053442;28;20445;-83
2023/10/18 03:46:48;;;;;;;2.60;1.33;;;22.90;64.60;;;;;;5053133;28;20520;-86
2023/10/18 03:49:24;;;;;;;1.30;1.20;;;22.90;64.60;;;;;;5053112;28;20433;-83
2023/10/18 03:51:54;;;;;;;1.37;1.27;;;22.90;64.60;;;;;;5053036;28;20437;-91
2023/10/18 03:54:23;;;;;;;1.53;1.23;;;22.90;64.70;;;;;;5053159;28;20437;-89
2023/10/18 03:56:52;;;;;;;1.77;1.50;;;22.90;64.60;;;;;;5052977;28;20975;-90
2023/10/18 03:59:22;;;;;;;1.40;1.30;;;22.80;64.50;;;;;;5052992;28;20449;-83
2023/10/18 04:02:15;;;;;;;1.60;1.50;;;22.90;64.60;;;;;;5052866;28;20540;-83
2023/10/18 04:04:44;;;;;;;1.30;1.20;;;22.90;64.60;;;;;;5053004;28;20489;-83
2023/10/18 04:07:13;;;;;;;1.40;1.30;;;22.80;64.60;;;;;;5052835;28;20889;-83
2023/10/18 04:09:46;;;;;;;2.53;1.40;;;22.80;64.50;;;;;;5053032;28;20468;-83
2023/10/18 04:12:17;;;;;;;1.73;1.33;;;22.80;64.40;;;;;;5052770;28;20429;-88
2023/10/18 04:14:52;;;;;;;1.50;1.40;;;22.80;64.50;;;;;;5053949;28;20445;-83
2023/10/18 04:17:20;;;;;;;1.70;1.30;;;22.80;64.40;;;;;;5056987;28;20468;-83
2023/10/18 04:19:48;;;;;;;1.30;1.20;;;22.80;64.40;;;;;;5056917;28;21415;-91
2023/10/18 04:22:17;;;;;;;1.40;1.20;;;22.80;64.50;;;;;;5056424;28;20448;-91
2023/10/18 04:24:44;;;;;;;1.20;1.10;;;22.80;64.40;;;;;;5056494;28;20441;-90
2023/10/18 04:27:11;;;;;;;2.40;1.40;;;22.80;64.50;;;;;;5056464;28;20825;-90
2023/10/18 04:29:39;;;;;;;1.30;1.13;;;22.80;64.50;;;;;;5056613;28;20468;-88
2023/10/18 04:32:17;;;;;;;1.73;1.30;;;22.80;64.50;;;;;;5056369;28;20944;-83
2023/10/18 04:34:46;;;;;;;1.40;1.23;;;22.80;64.50;;;;;;5056696;28;20436;-91
2023/10/18 04:37:14;;;;;;;1.30;1.20;;;22.80;64.50;;;;;;5056660;28;20468;-83
2023/10/18 04:39:42;;;;;;;1.63;1.33;;;22.80;64.50;;;;;;5056454;28;20445;-84
2023/10/18 04:42:16;;;;;;;1.40;1.30;;;22.80;64.60;;;;;;5055955;28;20444;-83
2023/10/18 04:44:47;;;;;;;1.40;1.30;;;22.80;64.40;;;;;;5056416;28;20436;-83
2023/10/18 04:47:15;;;;;;;1.73;1.30;;;22.80;64.50;;;;;;5056269;28;20481;-83
2023/10/18 04:49:43;;;;;;;2.60;1.50;;;22.80;64.50;;;;;;5055983;28;20437;-91
2023/10/18 04:52:18;;;;;;;1.47;1.37;;;22.80;64.50;;;;;;5055831;28;20511;-91
2023/10/18 04:54:59;;;;;;;1.60;1.40;;;22.80;64.40;;;;;;5056149;28;20464;-83
2023/10/18 04:57:26;;;;;;;1.67;1.57;;;22.80;64.60;;;;;;5055751;28;20485;-90
2023/10/18 04:59:52;;;;;;;2.13;1.40;;;22.80;64.50;;;;;;5055832;28;20508;-90
2023/10/18 05:02:26;;;;;;;1.50;1.30;;;22.80;64.40;;;;;;5055717;28;20437;-83
2023/10/18 05:04:54;;;;;;;1.63;1.33;;;22.80;64.50;;;;;;5055909;28;20520;-83
2023/10/18 05:07:38;;;;;;;1.40;1.30;;;22.80;64.50;;;;;;5055662;28;20489;-83
2023/10/18 05:10:14;;;;;;;1.23;1.13;;;22.80;64.60;;;;;;5055741;28;20437;-91
2023/10/18 05:12:47;;;;;;;1.23;1.13;;;22.70;64.40;;;;;;5055623;28;20445;-92
2023/10/18 05:15:18;;;;;;;1.20;1.00;;;22.70;65.10;;;;;;5055852;28;20516;-91
2023/10/18 05:17:47;;;;;;;2.23;1.57;;;22.70;64.50;;;;;;5055766;28;20874;-90
2023/10/18 05:20:25;;;;;;;1.40;1.27;;;22.70;64.30;;;;;;5055569;28;20421;-83
2023/10/18 05:22:52;;;;;;;1.30;1.20;;;22.70;64.40;;;;;;5055542;28;20447;-91
2023/10/18 05:25:29;;;;;;;1.40;1.30;;;22.70;64.40;;;;;;5055579;28;20466;-83
2023/10/18 05:28:09;;;;;;;1.73;1.33;;;22.70;64.20;;;;;;5054690;28;20433;-91
2023/10/18 05:36:55;;;;;;;2.20;1.20;;;22.70;64.50;;;;;;5055650;28;20400;-83
2023/10/18 05:39:28;;;;;;;1.67;1.57;;;22.70;64.60;;;;;;5055021;28;20503;-90
2023/10/18 05:42:03;;;;;;;1.60;1.47;;;22.70;64.70;;;;;;5055081;28;20516;-90
2023/10/18 05:44:31;;;;;;;1.30;1.20;;;22.70;64.80;;;;;;5055338;28;20433;-83
2023/10/18 05:46:59;;;;;;;1.20;1.10;;;22.70;65.00;;;;;;5055079;28;20531;-91
2023/10/18 05:49:28;;;;;;;1.47;1.37;;;22.70;64.80;;;;;;5054889;28;20442;-83
2023/10/18 05:51:59;;;;;;;1.33;1.10;;;22.70;64.90;;;;;;5054858;28;20467;-91
2023/10/18 05:54:28;;;;;;;1.47;1.37;;;22.70;64.90;;;;;;5055731;28;20509;-91
2023/10/18 05:57:51;;;;;;;1.67;1.57;;;22.70;64.90;;;;;;5052990;28;20479;-90
2023/10/18 06:00:20;;;;;;;1.40;1.30;;;22.70;64.80;;;;;;5054810;28;20563;-90
2023/10/18 06:02:47;;;;;;;1.10;1.00;;;22.70;65.10;;;;;;5054885;28;20437;-91
2023/10/18 06:05:14;;;;;;;1.40;1.30;;;22.70;65.00;;;;;;5054603;28;20933;-91
2023/10/18 06:07:41;;;;;;;1.63;1.20;;;22.70;65.00;;;;;;5054554;28;20480;-89
2023/10/18 06:10:16;;;;;;;2.10;1.40;;;22.70;65.00;;;;;;5054575;28;20917;-83
2023/10/18 06:12:46;;;;;;;2.47;1.80;;;22.70;65.00;;;;;;5054327;28;20437;-83
2023/10/18 06:15:14;;;;;;;1.37;1.00;;;22.70;65.00;;;;;;5054280;28;20959;-83
2023/10/18 06:17:47;;;;;;;1.40;1.30;;;22.70;65.30;;;;;;5053632;28;20445;-83
2023/10/18 06:20:23;;;;;;;1.40;1.30;;;22.70;65.60;;;;;;5050533;28;20532;-83
2023/10/18 06:22:53;;;;;;;2.90;1.33;;;22.70;65.60;;;;;;5051083;28;20453;-84
2023/10/18 06:25:26;;;;;;;1.43;1.17;;;22.70;65.50;;;;;;5053075;28;20448;-85
2023/10/18 06:27:53;;;;;;;1.40;1.30;;;22.80;65.70;;;;;;5052177;28;20490;-84
2023/10/18 06:30:24;;;;;;;1.77;1.20;;;22.70;65.30;;;;;;5054243;28;20788;-84
2023/10/18 06:32:52;;;;;;;2.10;1.80;;;22.70;65.60;;;;;;5054144;28;20461;-87
2023/10/18 06:35:26;;;;;;;3.10;1.30;;;22.70;65.70;;;;;;5053734;28;20970;-88
2023/10/18 06:37:54;;;;;;;1.40;1.30;;;22.70;65.80;;;;;;5033722;28;20508;-87
2023/10/18 06:40:40;;;;;;;1.40;1.27;;;22.70;65.70;;;;;;5038993;28;20464;-84
2023/10/18 06:43:08;;;;;;;1.77;1.37;;;22.70;65.80;;;;;;5048216;28;20460;-85
2023/10/18 06:45:38;;;;;;;2.43;1.60;;;22.70;65.90;;;;;;5053928;28;20441;-85
2023/10/18 06:48:08;;;;;;;1.63;1.53;;;22.60;65.80;;;;;;5053865;28;20492;-87
2023/10/18 06:50:35;;;;;;;1.77;1.40;;;22.60;65.90;;;;;;5053837;28;20929;-87
2023/10/18 06:53:05;;;;;;;1.50;1.40;;;22.60;65.90;;;;;;5053909;28;20459;-86
2023/10/18 06:55:41;;;;;;;1.33;1.23;;;22.60;65.70;;;;;;5053532;28;21012;-86
2023/10/18 06:58:13;;;;;;;1.30;1.17;;;22.60;65.80;;;;;;5053546;28;20445;-84
2023/10/18 07:00:44;;;;;;;2.37;1.40;;;22.70;65.50;;;;;;5053782;28;20952;-85
2023/10/18 07:03:17;;;;;;;4.20;3.10;;;22.80;65.70;;;;;;5053008;28;20442;-85
2023/10/18 07:05:49;;;;;;;3.37;2.50;;;22.60;59.70;;;;;;5052486;28;20452;-84
2023/10/18 07:08:25;;;;;;;1.73;1.63;;;22.60;61.50;;;;;;5052874;28;20534;-84
2023/10/18 07:10:56;;;;;;;2.50;1.67;;;22.50;63.50;;;;;;5052503;28;20449;-85
2023/10/18 07:13:32;;;;;;;2.23;2.13;;;22.50;64.40;;;;;;5052955;28;20482;-86
2023/10/18 07:16:01;;;;;;;1.60;1.50;;;22.50;64.90;;;;;;5053284;28;20826;-86
2023/10/18 07:18:33;;;;;;;1.57;1.47;;;22.60;65.20;;;;;;5053521;28;20440;-85
2023/10/18 07:21:05;;;;;;;1.83;1.30;;;22.70;65.20;;;;;;5053253;28;21003;-84
2023/10/18 07:23:36;;;;;;;1.30;1.20;;;22.60;65.20;;;;;;5053118;28;20445;-84
2023/10/18 07:26:07;;;;;;;2.40;1.70;;;22.60;65.10;;;;;;5052974;28;20516;-84
2023/10/18 07:28:36;;;;;;;1.40;1.20;;;22.60;65.20;;;;;;5052747;28;20453;-84
2023/10/18 07:31:08;;;;;;;3.10;1.43;;;22.60;65.20;;;;;;5053408;28;20445;-87
2023/10/18 07:33:41;;;;;;;1.80;1.60;;;22.60;65.20;;;;;;5053064;28;20480;-85
2023/10/18 07:36:09;;;;;;;1.50;1.30;;;22.60;64.90;;;;;;5052347;28;20452;-92
2023/10/18 07:38:39;;;;;;;1.70;1.60;;;22.70;65.20;;;;;;5052732;28;20999;-88
2023/10/18 07:41:07;;;;;;;1.97;1.60;;;22.70;65.20;;;;;;5053025;28;20437;-88
2023/10/18 07:43:35;;;;;;;2.43;1.73;;;22.70;65.10;;;;;;5035228;28;20850;-84
2023/10/18 07:46:09;;;;;;;1.50;1.40;;;22.70;65.20;;;;;;5053258;28;20441;-83
2023/10/18 07:48:45;;;;;;;1.63;1.53;;;22.70;65.10;;;;;;5053193;28;20495;-84
2023/10/18 07:51:23;;;;;;;1.50;1.30;;;22.70;65.00;;;;;;5055568;28;20453;-88
2023/10/18 07:53:51;;;;;;;6.33;1.30;;;22.70;64.90;;;;;;5057296;28;20429;-88
2023/10/18 07:56:18;;;;;;;1.60;1.50;;;22.70;64.90;;;;;;5057018;28;20454;-84
2023/10/18 07:58:49;;;;;;;1.63;1.53;;;22.70;64.90;;;;;;5056786;28;20469;-84
2023/10/18 08:01:32;;;;;;;2.40;2.10;;;22.90;65.20;;;;;;5056681;28;20452;-84
2023/10/18 08:04:02;;;;;;;4.10;2.03;;;22.70;63.00;;;;;;5056869;28;20430;-88
2023/10/18 08:06:33;;;;;;;4.97;2.00;;;22.70;62.90;;;;;;5056588;28;20987;-89
2023/10/18 08:09:04;;;;;;;3.87;1.80;;;22.70;63.10;;;;;;5056663;28;21055;-86
2023/10/18 08:11:34;;;;;;;5.77;1.47;;;22.70;63.20;;;;;;5056575;28;20879;-87
2023/10/18 08:14:01;;;;;;;1.67;1.40;;;22.80;63.50;;;;;;5056973;28;20441;-87
2023/10/18 08:16:42;;;;;;;5.77;1.70;;;22.80;63.50;;;;;;5057985;28;20449;-85
2023/10/18 08:19:11;;;;;;;2.27;1.50;;;22.90;63.80;;;;;;5058272;28;20437;-92
2023/10/18 08:21:38;;;;;;;2.40;1.57;;;22.90;62.70;;;;;;5057661;28;20457;-85
2023/10/18 08:24:19;;;;;;;3.00;1.77;;;23.10;63.10;;;;;;5059238;28;20441;-85
2023/10/18 08:26:51;;;;;;;4.23;1.80;;;22.90;62.70;;;;;;5058114;28;20972;-87
2023/10/18 08:29:18;;;;;;;4.23;2.00;;;23.00;63.00;;;;;;5042416;28;20441;-82
2023/10/18 08:31:48;;;;;;;4.50;2.00;;;23.00;62.80;;;;;;5056485;28;20441;-82
2023/10/18 08:34:17;;;;;;;2.00;1.63;;;23.00;63.10;;;;;;5056266;28;20862;-87
2023/10/18 08:36:44;;;;;;;1.67;1.57;;;23.00;62.90;;;;;;5056382;28;20453;-83
2023/10/18 08:39:12;;;;;;;2.73;1.60;;;23.00;62.70;;;;;;5055890;28;20449;-84
2023/10/18 08:41:54;;;;;;;5.63;1.93;;;23.00;62.80;;;;;;5056034;28;21042;-83
2023/10/18 08:44:24;;;;;;;1.60;1.30;;;23.00;62.80;;;;;;5056213;28;20452;-84
2023/10/18 08:47:03;;;;;;;2.80;1.20;;;23.00;62.90;;;;;;5056305;28;20814;-84
2023/10/18 08:49:34;;;;;;;3.10;1.73;;;23.00;62.60;;;;;;5056376;28;20484;-84
2023/10/18 08:52:08;;;;;;;2.77;1.60;;;23.00;62.50;;;;;;5056038;28;20441;-84
2023/10/18 08:54:36;;;;;;;2.47;1.50;;;23.10;62.60;;;;;;5056199;28;20441;-85
2023/10/18 08:57:07;;;;;;;2.00;1.67;;;23.10;62.40;;;;;;5057138;28;20437;-88
2023/10/18 08:59:42;;;;;;;1.40;1.20;;;23.20;62.50;;;;;;5055468;28;20975;-89
2023/10/18 09:02:13;;;;;;;1.80;1.60;;;23.30;62.60;;;;;;5053940;28;20444;-88
2023/10/18 09:04:44;;;;;;;1.60;1.50;;;23.50;62.80;;;;;;5055351;28;20444;-85
2023/10/18 09:07:21;;;;;;;2.90;1.60;;;23.50;62.70;;;;;;5055562;28;20507;-85
2023/10/18 09:09:54;;;;;;;2.57;1.60;;;23.60;62.40;;;;;;5055095;28;20465;-86
2023/10/18 09:12:33;;;;;;;1.37;1.27;;;23.70;61.90;;;;;;5055887;28;20464;-87
2023/10/18 09:14:59;;;;;;;1.50;1.40;;;23.70;62.60;;;;;;5055695;28;20473;-92
2023/10/18 09:17:26;;;;;;;1.83;1.20;;;23.80;62.50;;;;;;5055547;28;20944;-89
2023/10/18 09:19:56;;;;;;;3.30;1.37;;;23.90;62.70;;;;;;5055743;28;20558;-84
2023/10/18 09:22:23;;;;;;;5.03;1.83;;;24.00;62.70;;;;;;5051605;28;21001;-84
2023/10/18 09:24:50;;;;;;;1.70;1.40;;;24.20;63.30;;;;;;5055627;28;20568;-88
2023/10/18 09:27:20;;;;;;;2.47;1.80;;;24.40;62.20;;;;;;5045145;28;20485;-89
2023/10/18 09:29:51;;;;;;;2.13;1.80;;;24.60;60.90;;;;;;5054916;28;20433;-91
2023/10/18 09:32:32;;;;;;;1.30;1.20;;;24.80;61.10;;;;;;5055289;28;20507;-92
2023/10/18 09:35:07;;;;;;;2.00;1.80;;;24.90;60.90;;;;;;5055464;28;20473;-91
2023/10/18 09:37:36;;;;;;;2.47;1.40;;;25.20;60.30;;;;;;5055041;28;20445;-94
2023/10/18 09:40:04;;;;;;;3.43;1.70;;;25.30;60.00;;;;;;5054734;28;20453;-92
2023/10/18 09:42:31;;;;;;;1.70;1.50;;;25.50;60.00;;;;;;5055279;28;20453;-85
2023/10/18 09:44:59;;;;;;;5.57;1.93;;;25.60;59.80;;;;;;5054966;28;20445;-85
2023/10/18 09:47:28;;;;;;;1.47;1.37;;;25.70;59.70;;;;;;5055052;28;20480;-96
2023/10/18 09:49:56;;;;;;;1.67;1.30;;;25.80;59.60;;;;;;5054869;28;20469;-85
2023/10/18 09:52:30;;;;;;;1.60;1.50;;;25.70;59.70;;;;;;5054810;28;20434;-89
2023/10/18 09:55:01;;;;;;;1.90;1.40;;;25.50;59.90;;;;;;5054705;28;20913;-92
2023/10/18 09:57:35;;;;;;;5.17;1.73;;;25.30;60.30;;;;;;5056160;28;20449;-93
2023/10/18 10:00:09;;;;;;;3.17;1.50;;;25.20;60.80;;;;;;5055491;28;20477;-86
2023/10/18 10:02:38;;;;;;;2.40;1.80;;;25.00;61.30;;;;;;5060073;28;20784;-84
2023/10/18 10:05:24;;;;;;;1.43;1.33;;;25.00;61.80;;;;;;5061402;28;20445;-92
2023/10/18 10:07:54;;;;;;;2.53;1.63;;;25.00;61.70;;;;;;5047185;23;20491;-85
2023/10/18 10:10:42;;;;;;;2.23;1.40;;;25.00;61.70;;;;;;5001285;28;20444;-96
2023/10/18 10:13:18;;;;;;;2.90;1.90;;;24.90;62.00;;;;;;5017965;28;20447;-96
2023/10/18 10:15:55;;;;;;;2.60;1.50;;;24.90;61.30;;;;;;5049093;23;20477;-91
2023/10/18 10:18:27;;;;;;;2.90;1.70;;;24.90;62.10;;;;;;5051775;28;20445;-87
2023/10/18 10:20:56;;;;;;;4.23;1.60;;;24.80;62.30;;;;;;5038119;28;20427;-87
2023/10/18 10:23:24;;;;;;;2.70;1.70;;;24.70;62.70;;;;;;5036256;28;20524;-86
2023/10/18 10:26:10;;;;;;;6.50;1.83;;;24.60;63.00;;;;;;5042903;28;20450;-86
2023/10/18 10:31:54;;;;;;;2.30;1.20;;;24.40;63.40;;;;;;5036399;28;20481;-91
2023/10/18 10:34:27;;;;;;;1.43;1.33;;;24.30;63.60;;;;;;5034914;28;20431;-95
2023/10/18 10:37:04;;;;;;;1.73;1.47;;;24.20;63.70;;;;;;5034834;28;20434;-86
2023/10/18 10:39:35;;;;;;;3.00;1.77;;;24.30;64.10;;;;;;5034725;28;20450;-90
2023/10/18 10:42:09;;;;;;;2.23;1.63;;;24.10;64.20;;;;;;5017502;28;20490;-94
2023/10/18 10:47:34;;;;;;;1.90;1.73;;;24.00;64.50;;;;;;5176513;22;20987;-92
2023/10/18 10:50:03;;;;;;;2.30;2.10;;;24.00;63.80;;;;;;5016448;28;20666;-91
2023/10/18 10:52:30;;;;;;;4.70;2.33;;;24.00;63.40;;;;;;5016281;28;20643;-96
2023/10/18 10:55:17;;;;;;;2.70;1.57;;;24.00;63.30;;;;;;5034571;22;20489;-96
2023/10/18 10:57:44;;;;;;;2.70;1.60;;;24.00;64.00;;;;;;5037652;28;20808;-89
2023/10/18 11:03:52;;;;;;;1.97;1.87;;;23.90;64.00;;;;;;5040191;28;20442;-94
2023/10/18 11:06:23;;;;;;;2.70;1.73;;;23.90;64.10;;;;;;5033418;28;20470;-93
2023/10/18 11:08:52;;;;;;;2.90;2.07;;;23.90;63.80;;;;;;5033433;28;20521;-89
2023/10/18 11:11:22;;;;;;;2.07;1.50;;;23.90;62.90;;;;;;5033742;28;20446;-88
2023/10/18 11:13:49;;;;;;;2.53;2.13;;;23.80;62.20;;;;;;5041453;28;20438;-90
2023/10/18 11:16:17;;;;;;;2.23;1.70;;;23.80;63.00;;;;;;5043807;28;20500;-89
2023/10/18 11:18:48;;;;;;;2.40;1.90;;;23.70;62.50;;;;;;5033053;28;20524;-89
2023/10/18 11:21:21;;;;;;;3.10;2.07;;;23.80;62.30;;;;;;5033073;28;20554;-89
2023/10/18 11:23:51;;;;;;;6.20;1.90;;;23.80;62.60;;;;;;5030467;28;20509;-88
2023/10/18 11:26:24;;;;;;;6.70;2.40;;;23.70;63.20;;;;;;5032034;28;20436;-88
2023/10/18 11:28:56;;;;;;;2.07;1.97;;;23.70;63.10;;;;;;5033512;28;20489;-90
2023/10/18 11:31:26;;;;;;;2.53;1.73;;;23.70;63.90;;;;;;5032680;28;20441;-86
2023/10/18 11:33:59;;;;;;;3.17;1.97;;;23.70;64.40;;;;;;5033406;28;20438;-86
2023/10/18 11:36:28;;;;;;;1.70;1.60;;;23.70;64.60;;;;;;5033258;28;20450;-92
2023/10/18 11:39:18;;;;;;;2.23;2.03;;;23.80;64.80;;;;;;5034404;28;20937;-95
2023/10/18 11:45:15;;;;;;;1.90;1.70;;;23.90;64.90;;;;;;5035749;28;20445;-91
2023/10/18 11:47:49;;;;;;;2.20;2.00;;;23.90;65.00;;;;;;5052469;28;20481;-88
2023/10/18 11:50:16;;;;;;;3.77;2.17;;;23.90;65.00;;;;;;5043580;28;20528;-96
2023/10/18 11:52:48;;;;;;;2.70;1.80;;;24.00;64.90;;;;;;5030816;28;20443;-96
2023/10/18 11:55:15;;;;;;;5.63;1.80;;;24.00;64.90;;;;;;5013851;28;20522;-95
2023/10/18 11:57:46;;;;;;;4.83;1.83;;;24.10;64.90;;;;;;5013363;28;20467;-85
2023/10/18 12:00:28;;;;;;;2.63;1.70;;;24.10;65.00;;;;;;5013751;28;20475;-84
2023/10/18 12:02:55;;;;;;;1.73;1.63;;;24.10;65.10;;;;;;5013495;28;20940;-94
2023/10/18 12:05:27;;;;;;;3.97;1.80;;;24.10;65.10;;;;;;5013416;28;21069;-91
2023/10/18 12:07:54;;;;;;;2.00;1.80;;;24.10;65.00;;;;;;5013168;28;20481;-93
2023/10/18 12:10:34;;;;;;;2.73;1.80;;;24.20;65.00;;;;;;5013543;28;20509;-84
2023/10/18 12:13:02;;;;;;;2.13;1.90;;;24.20;65.20;;;;;;5013498;28;20443;-94
2023/10/18 12:15:31;;;;;;;2.27;2.07;;;24.20;65.20;;;;;;5013073;28;20957;-94
2023/10/18 12:18:01;;;;;;;2.63;1.67;;;24.20;65.20;;;;;;5013303;28;20475;-94
2023/10/18 12:20:34;;;;;;;2.93;2.03;;;24.20;65.20;;;;;;5013403;28;20442;-94
2023/10/18 12:23:02;;;;;;;2.70;1.47;;;24.20;65.10;;;;;;5013444;28;20455;-88
2023/10/18 12:25:29;;;;;;;2.10;1.90;;;24.20;65.00;;;;;;5013097;28;20435;-84
2023/10/18 12:27:56;;;;;;;3.07;2.00;;;24.30;64.30;;;;;;5012883;28;20482;-86
2023/10/18 12:30:33;;;;;;;1.77;1.50;;;24.20;64.60;;;;;;5013154;28;21203;-84
2023/10/18 12:33:05;;;;;;;2.30;2.10;;;24.20;63.60;;;;;;5028660;28;20860;-85
2023/10/18 12:35:33;;;;;;;6.50;2.13;;;24.20;63.50;;;;;;5033030;28;20443;-87
2023/10/18 12:37:59;;;;;;;3.10;1.77;;;24.20;63.80;;;;;;5036320;28;20446;-87
2023/10/18 12:40:31;;;;;;;2.63;1.97;;;24.10;63.30;;;;;;5036445;28;20472;-87
2023/10/18 12:43:00;;;;;;;3.03;1.93;;;24.10;63.00;;;;;;5036003;28;20446;-86
2023/10/18 12:45:27;;;;;;;2.97;1.70;;;24.10;63.00;;;;;;5036463;28;20549;-87
2023/10/18 12:47:55;;;;;;;2.10;1.83;;;24.10;63.20;;;;;;5035957;28;21074;-86
2023/10/18 12:50:28;;;;;;;1.93;1.77;;;24.00;62.80;;;;;;5036331;28;20438;-91
2023/10/18 12:53:06;;;;;;;1.87;1.60;;;24.00;63.20;;;;;;5036832;28;20454;-94
2023/10/18 12:55:33;;;;;;;3.10;1.87;;;24.00;64.10;;;;;;5036690;28;20478;-91
2023/10/18 12:58:00;;;;;;;3.83;1.50;;;24.00;65.00;;;;;;5036289;28;20466;-96
2023/10/18 13:00:33;;;;;;;4.17;1.53;;;24.00;65.10;;;;;;5036325;28;20450;-96
2023/10/18 13:03:21;;;;;;;3.30;1.80;;;24.00;65.10;;;;;;5037048;28;20897;-96
2023/10/18 13:05:52;;;;;;;2.23;1.87;;;24.00;65.10;;;;;;5036566;28;20437;-96
2023/10/18 13:08:22;;;;;;;3.43;1.60;;;24.10;65.20;;;;;;5036290;28;20474;-96
2023/10/18 13:10:59;;;;;;;1.77;1.30;;;24.10;65.20;;;;;;5036366;28;20502;-85
2023/10/18 13:13:30;;;;;;;2.67;2.07;;;24.10;65.20;;;;;;5036172;28;20492;-96
2023/10/18 13:15:57;;;;;;;2.00;1.50;;;24.10;65.20;;;;;;5035171;28;20450;-86
2023/10/18 13:18:25;;;;;;;3.00;2.47;;;24.10;65.20;;;;;;5033967;28;20452;-85
2023/10/18 13:20:54;;;;;;;5.83;2.70;;;24.10;63.50;;;;;;5033858;28;20438;-88
2023/10/18 13:23:21;;;;;;;3.50;1.73;;;24.10;61.00;;;;;;5019418;28;20466;-92
2023/10/18 13:25:51;;;;;;;9.63;2.73;;;24.00;61.00;;;;;;5035731;28;20446;-94
2023/10/18 13:28:27;;;;;;;2.20;1.67;;;24.00;62.40;;;;;;5035765;28;20843;-90